sensor_id;sensor_type;location;lat;lon;timestamp;pressure;altitude;pressure_sealevel;temperature;humidity
36260;BME280;22296;50.824;5.644;2022-11-20T00:01:05;100315.81;;;14.90;61.78
36260;BME280;22296;50.824;5.644;2022-11-20T00:03:32;100320.69;;;14.93;61.97
36260;BME280;22296;50.824;5.644;2022-11-20T00:06:08;100311.25;;;14.94;61.73
36260;BME280;22296;50.824;5.644;2022-11-20T00:08:35;100312.72;;;14.92;61.77
36260;BME280;22296;50.824;5.644;2022-11-20T00:11:10;100311.94;;;14.82;62.17
36260;BME280;22296;50.824;5.644;2022-11-20T00:13:43;100314.56;;;14.79;62.25
36260;BME280;22296;50.824;5.644;2022-11-20T00:16:12;100295.78;;;14.76;62.29
36260;BME280;22296;50.824;5.644;2022-11-20T00:18:40;100301.16;;;14.81;62.00
36260;BME280;22296;50.824;5.644;2022-11-20T00:21:14;100290.19;;;14.84;62.07
36260;BME280;22296;50.824;5.644;2022-11-20T00:23:42;100294.81;;;14.80;62.06
36260;BME280;22296;50.824;5.644;2022-11-20T00:26:12;100294.66;;;14.77;62.09
36260;BME280;22296;50.824;5.644;2022-11-20T00:28:40;100285.69;;;14.71;62.30
36260;BME280;22296;50.824;5.644;2022-11-20T00:31:12;100288.16;;;14.64;62.66
36260;BME280;22296;50.824;5.644;2022-11-20T00:33:40;100294.03;;;14.63;62.48
36260;BME280;22296;50.824;5.644;2022-11-20T00:36:16;100291.09;;;14.59;62.58
36260;BME280;22296;50.824;5.644;2022-11-20T00:38:43;100294.50;;;14.65;62.55
36260;BME280;22296;50.824;5.644;2022-11-20T00:41:13;100285.88;;;14.58;62.59
36260;BME280;22296;50.824;5.644;2022-11-20T00:43:41;100284.44;;;14.52;62.70
36260;BME280;22296;50.824;5.644;2022-11-20T00:46:13;100276.13;;;14.52;62.58
36260;BME280;22296;50.824;5.644;2022-11-20T00:48:41;100285.88;;;14.58;62.51
36260;BME280;22296;50.824;5.644;2022-11-20T00:51:09;100284.09;;;14.53;62.70
36260;BME280;22296;50.824;5.644;2022-11-20T00:53:37;100282.47;;;14.52;62.58
36260;BME280;22296;50.824;5.644;2022-11-20T00:56:07;100279.72;;;14.44;62.86
36260;BME280;22296;50.824;5.644;2022-11-20T00:58:36;100280.69;;;14.48;62.64
36260;BME280;22296;50.824;5.644;2022-11-20T01:01:08;100283.13;;;14.49;62.58
36260;BME280;22296;50.824;5.644;2022-11-20T01:03:38;100291.13;;;14.51;62.64
36260;BME280;22296;50.824;5.644;2022-11-20T01:06:16;100291.13;;;14.51;62.62
36260;BME280;22296;50.824;5.644;2022-11-20T01:08:45;100284.25;;;14.57;62.33
36260;BME280;22296;50.824;5.644;2022-11-20T01:11:15;100283.81;;;14.46;62.54
36260;BME280;22296;50.824;5.644;2022-11-20T01:13:43;100282.81;;;14.42;62.71
36260;BME280;22296;50.824;5.644;2022-11-20T01:16:20;100284.63;;;14.38;62.77
36260;BME280;22296;50.824;5.644;2022-11-20T01:18:50;100285.91;;;14.41;62.71
36260;BME280;22296;50.824;5.644;2022-11-20T01:21:22;100282.34;;;14.49;62.52
36260;BME280;22296;50.824;5.644;2022-11-20T01:23:50;100281.34;;;14.45;62.53
36260;BME280;22296;50.824;5.644;2022-11-20T01:26:24;100270.75;;;14.38;62.84
36260;BME280;22296;50.824;5.644;2022-11-20T01:28:51;100278.41;;;14.50;62.27
36260;BME280;22296;50.824;5.644;2022-11-20T01:31:22;100272.72;;;14.46;62.58
36260;BME280;22296;50.824;5.644;2022-11-20T01:33:52;100274.03;;;14.40;62.49
36260;BME280;22296;50.824;5.644;2022-11-20T01:36:21;100282.34;;;14.49;62.51
36260;BME280;22296;50.824;5.644;2022-11-20T01:38:52;100284.91;;;14.54;62.24
36260;BME280;22296;50.824;5.644;2022-11-20T01:41:21;100281.66;;;14.52;62.15
36260;BME280;22296;50.824;5.644;2022-11-20T01:44:08;100286.56;;;14.55;62.24
36260;BME280;22296;50.824;5.644;2022-11-20T01:46:38;100285.41;;;14.56;62.17
36260;BME280;22296;50.824;5.644;2022-11-20T01:52:20;100292.13;;;14.55;61.94
36260;BME280;22296;50.824;5.644;2022-11-20T01:54:56;100277.91;;;14.56;61.92
36260;BME280;22296;50.824;5.644;2022-11-20T01:57:25;100283.66;;;14.43;62.31
36260;BME280;22296;50.824;5.644;2022-11-20T02:00:01;100282.63;;;14.56;62.00
36260;BME280;22296;50.824;5.644;2022-11-20T02:02:39;100280.03;;;14.51;62.06
36260;BME280;22296;50.824;5.644;2022-11-20T02:07:54;100278.75;;;14.40;62.56
36260;BME280;22296;50.824;5.644;2022-11-20T02:10:22;100278.75;;;14.40;62.41
36260;BME280;22296;50.824;5.644;2022-11-20T02:12:49;100278.41;;;14.41;62.46
36260;BME280;22296;50.824;5.644;2022-11-20T02:15:35;100288.06;;;14.35;62.77
36260;BME280;22296;50.824;5.644;2022-11-20T02:18:02;100278.44;;;14.33;62.78
36260;BME280;22296;50.824;5.644;2022-11-20T02:20:29;100277.78;;;14.36;62.60
36260;BME280;22296;50.824;5.644;2022-11-20T02:23:05;100271.56;;;14.39;62.57
36260;BME280;22296;50.824;5.644;2022-11-20T02:25:35;100274.81;;;14.41;62.38
36260;BME280;22296;50.824;5.644;2022-11-20T02:28:03;100279.41;;;14.37;62.33
36260;BME280;22296;50.824;5.644;2022-11-20T02:30:31;100283.00;;;14.28;62.54
36260;BME280;22296;50.824;5.644;2022-11-20T02:32:58;100275.63;;;14.41;62.27
36260;BME280;22296;50.824;5.644;2022-11-20T02:37:54;100263.44;;;14.34;62.49
36260;BME280;22296;50.824;5.644;2022-11-20T02:40:22;100274.97;;;14.44;62.25
36260;BME280;22296;50.824;5.644;2022-11-20T02:42:53;100271.25;;;14.32;62.46
36260;BME280;22296;50.824;5.644;2022-11-20T02:45:20;100265.84;;;14.35;62.33
36260;BME280;22296;50.824;5.644;2022-11-20T02:47:47;100269.28;;;14.41;62.15
36260;BME280;22296;50.824;5.644;2022-11-20T02:50:14;100276.78;;;14.32;62.42
36260;BME280;22296;50.824;5.644;2022-11-20T02:52:42;100268.63;;;14.26;62.33
36260;BME280;22296;50.824;5.644;2022-11-20T02:55:09;100273.69;;;14.24;62.68
36260;BME280;22296;50.824;5.644;2022-11-20T02:57:36;100268.97;;;14.34;62.20
36260;BME280;22296;50.824;5.644;2022-11-20T03:00:04;100283.81;;;14.29;62.63
36260;BME280;22296;50.824;5.644;2022-11-20T03:02:31;100281.69;;;14.26;62.69
36260;BME280;22296;50.824;5.644;2022-11-20T03:04:58;100283.97;;;14.24;62.51
36260;BME280;22296;50.824;5.644;2022-11-20T03:07:25;100281.06;;;14.20;62.87
36260;BME280;22296;50.824;5.644;2022-11-20T03:09:52;100282.19;;;14.19;62.82
36260;BME280;22296;50.824;5.644;2022-11-20T03:12:18;100283.50;;;14.22;62.50
36260;BME280;22296;50.824;5.644;2022-11-20T03:14:45;100281.06;;;14.20;62.77
36260;BME280;22296;50.824;5.644;2022-11-20T03:17:18;100284.81;;;14.16;62.98
36260;BME280;22296;50.824;5.644;2022-11-20T03:19:45;100274.38;;;14.13;62.92
36260;BME280;22296;50.824;5.644;2022-11-20T03:22:12;100270.94;;;14.16;62.64
36260;BME280;22296;50.824;5.644;2022-11-20T03:24:39;100268.31;;;14.19;62.60
36260;BME280;22296;50.824;5.644;2022-11-20T03:27:06;100272.22;;;14.18;62.82
36260;BME280;22296;50.824;5.644;2022-11-20T03:29:32;100260.47;;;14.21;62.53
36260;BME280;22296;50.824;5.644;2022-11-20T03:32:01;100260.47;;;14.21;62.62
36260;BME280;22296;50.824;5.644;2022-11-20T03:34:28;100257.88;;;14.16;62.68
36260;BME280;22296;50.824;5.644;2022-11-20T03:36:54;100249.88;;;14.15;62.92
36260;BME280;22296;50.824;5.644;2022-11-20T03:39:21;100256.91;;;14.12;62.87
36260;BME280;22296;50.824;5.644;2022-11-20T03:41:48;100256.91;;;14.12;62.88
36260;BME280;22296;50.824;5.644;2022-11-20T03:44:15;100252.00;;;14.09;63.27
36260;BME280;22296;50.824;5.644;2022-11-20T03:46:42;100254.78;;;14.09;62.87
36260;BME280;22296;50.824;5.644;2022-11-20T03:49:09;100249.75;;;14.11;62.88
36260;BME280;22296;50.824;5.644;2022-11-20T03:51:36;100256.78;;;13.92;63.28
36260;BME280;22296;50.824;5.644;2022-11-20T03:54:07;100259.19;;;14.10;62.82
36260;BME280;22296;50.824;5.644;2022-11-20T03:56:36;100253.50;;;14.07;63.01
36260;BME280;22296;50.824;5.644;2022-11-20T03:59:04;100240.31;;;13.78;63.90
36260;BME280;22296;50.824;5.644;2022-11-20T04:01:34;100243.88;;;14.04;63.11
36260;BME280;22296;50.824;5.644;2022-11-20T04:04:01;100245.53;;;13.88;63.72
36260;BME280;22296;50.824;5.644;2022-11-20T04:06:33;100246.81;;;13.99;63.19
36260;BME280;22296;50.824;5.644;2022-11-20T04:09:00;100248.47;;;13.83;63.81
36260;BME280;22296;50.824;5.644;2022-11-20T04:11:29;100247.50;;;13.79;63.96
36260;BME280;22296;50.824;5.644;2022-11-20T04:14:12;100249.91;;;13.81;63.56
36260;BME280;22296;50.824;5.644;2022-11-20T04:16:40;100247.78;;;13.86;63.29
36260;BME280;22296;50.824;5.644;2022-11-20T04:19:11;100250.25;;;13.88;63.48
36260;BME280;22296;50.824;5.644;2022-11-20T04:21:38;100245.38;;;13.85;63.75
36260;BME280;22296;50.824;5.644;2022-11-20T04:24:06;100244.72;;;13.62;64.30
36260;BME280;22296;50.824;5.644;2022-11-20T04:26:33;100259.72;;;13.69;64.27
36260;BME280;22296;50.824;5.644;2022-11-20T04:29:00;100263.13;;;13.75;63.85
36260;BME280;22296;50.824;5.644;2022-11-20T04:31:32;100252.88;;;13.84;63.49
36260;BME280;22296;50.824;5.644;2022-11-20T04:34:00;100255.47;;;13.72;64.16
36260;BME280;22296;50.824;5.644;2022-11-20T04:36:28;100259.72;;;13.69;63.92
36260;BME280;22296;50.824;5.644;2022-11-20T04:38:59;100256.94;;;13.61;64.15
36260;BME280;22296;50.824;5.644;2022-11-20T04:41:30;100264.44;;;13.86;63.52
36260;BME280;22296;50.824;5.644;2022-11-20T04:44:00;100260.03;;;13.68;64.09
36260;BME280;22296;50.824;5.644;2022-11-20T04:46:35;100258.56;;;13.62;64.53
36260;BME280;22296;50.824;5.644;2022-11-20T04:49:02;100261.34;;;13.70;63.65
36260;BME280;22296;50.824;5.644;2022-11-20T04:51:29;100264.13;;;13.79;63.64
36260;BME280;22296;50.824;5.644;2022-11-20T04:53:56;100264.75;;;13.59;64.44
36260;BME280;22296;50.824;5.644;2022-11-20T04:56:23;100255.97;;;13.57;64.44
36260;BME280;22296;50.824;5.644;2022-11-20T04:58:50;100270.94;;;13.56;64.32
36260;BME280;22296;50.824;5.644;2022-11-20T05:01:20;100262.47;;;13.61;64.00
36260;BME280;22296;50.824;5.644;2022-11-20T05:03:47;100257.09;;;13.56;64.42
36260;BME280;22296;50.824;5.644;2022-11-20T05:06:16;100256.09;;;13.52;64.62
36260;BME280;22296;50.824;5.644;2022-11-20T05:08:44;100253.97;;;13.49;64.59
36260;BME280;22296;50.824;5.644;2022-11-20T05:11:13;100248.63;;;13.52;64.52
36260;BME280;22296;50.824;5.644;2022-11-20T05:13:41;100250.44;;;13.57;64.45
36260;BME280;22296;50.824;5.644;2022-11-20T05:16:11;100249.28;;;13.58;64.02
36260;BME280;22296;50.824;5.644;2022-11-20T05:18:39;100246.84;;;13.48;64.79
36260;BME280;22296;50.824;5.644;2022-11-20T05:21:07;100236.88;;;13.64;64.19
36260;BME280;22296;50.824;5.644;2022-11-20T05:23:35;100233.94;;;13.69;63.95
36260;BME280;22296;50.824;5.644;2022-11-20T05:26:03;100237.06;;;13.42;64.80
36260;BME280;22296;50.824;5.644;2022-11-20T05:28:30;100228.09;;;13.45;64.80
36260;BME280;22296;50.824;5.644;2022-11-20T05:31:07;100232.50;;;13.46;64.94
36260;BME280;22296;50.824;5.644;2022-11-20T05:33:35;100234.75;;;13.44;64.92
36260;BME280;22296;50.824;5.644;2022-11-20T05:36:03;100228.41;;;13.52;64.55
36260;BME280;22296;50.824;5.644;2022-11-20T05:38:30;100228.56;;;13.47;64.34
36260;BME280;22296;50.824;5.644;2022-11-20T05:43:39;100224.31;;;13.41;64.77
36260;BME280;22296;50.824;5.644;2022-11-20T05:46:08;100224.84;;;13.34;64.93
36260;BME280;22296;50.824;5.644;2022-11-20T05:48:36;100223.38;;;13.37;64.79
36260;BME280;22296;50.824;5.644;2022-11-20T05:51:06;100227.25;;;13.36;64.79
36260;BME280;22296;50.824;5.644;2022-11-20T05:53:35;100225.31;;;13.28;64.99
36260;BME280;22296;50.824;5.644;2022-11-20T05:56:03;100220.72;;;13.32;64.91
36260;BME280;22296;50.824;5.644;2022-11-20T05:58:31;100235.75;;;13.39;64.74
36260;BME280;22296;50.824;5.644;2022-11-20T06:01:10;100230.53;;;13.46;64.60
36260;BME280;22296;50.824;5.644;2022-11-20T06:03:37;100225.16;;;13.41;64.62
36260;BME280;22296;50.824;5.644;2022-11-20T06:06:05;100231.16;;;13.35;64.90
36260;BME280;22296;50.824;5.644;2022-11-20T06:08:32;100236.22;;;13.41;64.45
36260;BME280;22296;50.824;5.644;2022-11-20T06:11:06;100237.69;;;13.39;64.68
36260;BME280;22296;50.824;5.644;2022-11-20T06:13:33;100242.59;;;13.42;64.74
36260;BME280;22296;50.824;5.644;2022-11-20T06:16:07;100236.22;;;13.33;64.75
36260;BME280;22296;50.824;5.644;2022-11-20T06:18:34;100247.00;;;13.34;64.89
36260;BME280;22296;50.824;5.644;2022-11-20T06:21:03;100244.22;;;13.26;65.05
36260;BME280;22296;50.824;5.644;2022-11-20T06:23:30;100246.16;;;13.34;64.79
36260;BME280;22296;50.824;5.644;2022-11-20T06:26:04;100247.09;;;13.21;65.24
36260;BME280;22296;50.824;5.644;2022-11-20T06:28:32;100252.66;;;13.38;64.79
36260;BME280;22296;50.824;5.644;2022-11-20T06:30:59;100243.53;;;13.29;65.12
36260;BME280;22296;50.824;5.644;2022-11-20T06:33:26;100238.97;;;13.24;65.10
36260;BME280;22296;50.824;5.644;2022-11-20T06:35:56;100235.91;;;13.43;64.26
36260;BME280;22296;50.824;5.644;2022-11-20T06:38:28;100241.28;;;13.31;65.08
36260;BME280;22296;50.824;5.644;2022-11-20T06:40:55;100243.38;;;13.25;65.27
36260;BME280;22296;50.824;5.644;2022-11-20T06:43:22;100243.19;;;13.13;65.86
36260;BME280;22296;50.824;5.644;2022-11-20T06:45:56;100245.63;;;13.23;65.72
36260;BME280;22296;50.824;5.644;2022-11-20T06:48:23;100246.16;;;13.34;64.95
36260;BME280;22296;50.824;5.644;2022-11-20T06:50:52;100239.63;;;13.30;65.26
36260;BME280;22296;50.824;5.644;2022-11-20T06:53:18;100239.16;;;13.28;65.19
36260;BME280;22296;50.824;5.644;2022-11-20T06:55:46;100245.00;;;13.35;65.09
36260;BME280;22296;50.824;5.644;2022-11-20T06:58:14;100238.66;;;13.26;65.28
36260;BME280;22296;50.824;5.644;2022-11-20T07:00:42;100246.84;;;13.48;64.50
36260;BME280;22296;50.824;5.644;2022-11-20T07:03:11;100245.00;;;13.35;64.85
36260;BME280;22296;50.824;5.644;2022-11-20T07:05:38;100250.38;;;13.23;64.99
36260;BME280;22296;50.824;5.644;2022-11-20T07:08:05;100241.28;;;13.31;64.99
36260;BME280;22296;50.824;5.644;2022-11-20T07:10:32;100241.72;;;13.16;65.44
36260;BME280;22296;50.824;5.644;2022-11-20T07:12:59;100239.13;;;13.19;65.22
36260;BME280;22296;50.824;5.644;2022-11-20T07:15:26;100233.44;;;13.24;65.17
36260;BME280;22296;50.824;5.644;2022-11-20T07:17:53;100237.16;;;13.11;65.23
36260;BME280;22296;50.824;5.644;2022-11-20T07:20:20;100238.66;;;13.26;64.85
36260;BME280;22296;50.824;5.644;2022-11-20T07:22:53;100237.66;;;13.22;64.95
36260;BME280;22296;50.824;5.644;2022-11-20T07:25:22;100238.66;;;13.26;64.65
36260;BME280;22296;50.824;5.644;2022-11-20T07:27:49;100235.41;;;13.41;64.02
36260;BME280;22296;50.824;5.644;2022-11-20T07:30:16;100237.06;;;13.42;64.01
36260;BME280;22296;50.824;5.644;2022-11-20T07:32:46;100235.75;;;13.48;63.73
36260;BME280;22296;50.824;5.644;2022-11-20T07:35:13;100240.94;;;13.41;64.12
36260;BME280;22296;50.824;5.644;2022-11-20T07:37:40;100241.91;;;13.28;64.30
36260;BME280;22296;50.824;5.644;2022-11-20T07:40:07;100243.41;;;13.34;64.43
36260;BME280;22296;50.824;5.644;2022-11-20T07:42:34;100235.09;;;13.34;64.11
36260;BME280;22296;50.824;5.644;2022-11-20T07:45:01;100231.03;;;13.31;64.20
36260;BME280;22296;50.824;5.644;2022-11-20T07:47:28;100222.06;;;13.26;64.27
36260;BME280;22296;50.824;5.644;2022-11-20T07:49:54;100225.63;;;13.35;64.15
36260;BME280;22296;50.824;5.644;2022-11-20T07:52:21;100219.78;;;13.28;64.29
36260;BME280;22296;50.824;5.644;2022-11-20T07:54:48;100221.38;;;13.29;64.30
36260;BME280;22296;50.824;5.644;2022-11-20T07:57:15;100229.84;;;13.24;64.39
36260;BME280;22296;50.824;5.644;2022-11-20T07:59:42;100232.78;;;13.19;64.46
36260;BME280;22296;50.824;5.644;2022-11-20T08:02:10;100216.34;;;13.31;64.14
36260;BME280;22296;50.824;5.644;2022-11-20T08:04:37;100228.72;;;13.25;64.30
36260;BME280;22296;50.824;5.644;2022-11-20T08:07:04;100238.00;;;13.29;64.35
36260;BME280;22296;50.824;5.644;2022-11-20T08:09:33;100247.28;;;13.24;64.40
36260;BME280;22296;50.824;5.644;2022-11-20T08:12:00;100240.59;;;13.17;64.71
36260;BME280;22296;50.824;5.644;2022-11-20T08:14:45;100247.41;;;13.10;64.98
36260;BME280;22296;50.824;5.644;2022-11-20T08:17:12;100246.97;;;13.17;64.59
36260;BME280;22296;50.824;5.644;2022-11-20T08:19:39;100239.63;;;13.21;64.47
36260;BME280;22296;50.824;5.644;2022-11-20T08:22:06;100235.72;;;13.13;65.06
36260;BME280;22296;50.824;5.644;2022-11-20T08:24:33;100227.88;;;13.16;64.72
36260;BME280;22296;50.824;5.644;2022-11-20T08:27:00;100236.34;;;13.10;64.92
36260;BME280;22296;50.824;5.644;2022-11-20T08:29:27;100227.88;;;13.16;64.91
36260;BME280;22296;50.824;5.644;2022-11-20T08:31:54;100227.06;;;13.15;65.02
36260;BME280;22296;50.824;5.644;2022-11-20T08:34:21;100221.53;;;13.15;64.99
36260;BME280;22296;50.824;5.644;2022-11-20T08:36:47;100217.66;;;13.25;64.65
36260;BME280;22296;50.824;5.644;2022-11-20T08:39:14;100210.81;;;13.22;64.72
36260;BME280;22296;50.824;5.644;2022-11-20T08:41:41;100214.22;;;13.28;64.71
36260;BME280;22296;50.824;5.644;2022-11-20T08:44:08;100211.47;;;13.36;64.43
36260;BME280;22296;50.824;5.644;2022-11-20T08:46:37;100209.19;;;13.47;64.12
36260;BME280;22296;50.824;5.644;2022-11-20T08:49:05;100208.22;;;13.51;64.29
36260;BME280;22296;50.824;5.644;2022-11-20T08:51:33;100204.81;;;13.46;64.67
36260;BME280;22296;50.824;5.644;2022-11-20T08:54:00;100216.03;;;13.41;65.10
36260;BME280;22296;50.824;5.644;2022-11-20T08:56:27;100214.88;;;13.42;65.12
36260;BME280;22296;50.824;5.644;2022-11-20T08:58:54;100207.72;;;13.41;65.40
36260;BME280;22296;50.824;5.644;2022-11-20T09:01:41;100208.22;;;13.43;65.14
36260;BME280;22296;50.824;5.644;2022-11-20T09:04:08;100216.03;;;13.49;64.88
36260;BME280;22296;50.824;5.644;2022-11-20T09:06:35;100217.31;;;13.52;65.19
36260;BME280;22296;50.824;5.644;2022-11-20T09:09:02;100201.22;;;13.54;65.14
36260;BME280;22296;50.824;5.644;2022-11-20T09:11:32;100191.09;;;13.58;64.94
36260;BME280;22296;50.824;5.644;2022-11-20T09:13:59;100183.28;;;13.60;64.80
36260;BME280;22296;50.824;5.644;2022-11-20T09:16:26;100190.44;;;13.61;65.01
36260;BME280;22296;50.824;5.644;2022-11-20T09:18:53;100190.44;;;13.61;64.95
36260;BME280;22296;50.824;5.644;2022-11-20T09:21:40;100184.25;;;13.64;65.03
36260;BME280;22296;50.824;5.644;2022-11-20T09:24:07;100186.84;;;13.69;64.95
36260;BME280;22296;50.824;5.644;2022-11-20T09:26:34;100189.13;;;13.67;64.94
36260;BME280;22296;50.824;5.644;2022-11-20T09:29:01;100187.66;;;13.69;65.04
36260;BME280;22296;50.824;5.644;2022-11-20T09:31:28;100185.06;;;13.73;64.84
36260;BME280;22296;50.824;5.644;2022-11-20T09:33:55;100179.84;;;13.72;64.90
36260;BME280;22296;50.824;5.644;2022-11-20T09:36:21;100178.38;;;13.74;64.97
36260;BME280;22296;50.824;5.644;2022-11-20T09:38:48;100168.91;;;13.75;64.89
36260;BME280;22296;50.824;5.644;2022-11-20T09:46:42;100174.31;;;13.80;64.59
36260;BME280;22296;50.824;5.644;2022-11-20T09:49:43;100172.31;;;13.81;64.87
36260;BME280;22296;50.824;5.644;2022-11-20T09:55:14;100164.16;;;13.84;64.48
36260;BME280;22296;50.824;5.644;2022-11-20T09:57:45;100161.75;;;13.83;64.78
36260;BME280;22296;50.824;5.644;2022-11-20T10:00:14;100157.50;;;13.85;64.41
36260;BME280;22296;50.824;5.644;2022-11-20T10:03:02;100153.56;;;13.86;64.47
36260;BME280;22296;50.824;5.644;2022-11-20T10:05:50;100153.41;;;13.91;64.55
36260;BME280;22296;50.824;5.644;2022-11-20T10:08:24;100150.63;;;13.91;64.35
36260;BME280;22296;50.824;5.644;2022-11-20T10:11:13;100132.38;;;13.90;64.24
36260;BME280;22296;50.824;5.644;2022-11-20T10:14:08;100135.63;;;13.92;64.35
36260;BME280;22296;50.824;5.644;2022-11-20T10:25:20;100120.78;;;13.97;63.98
36260;BME280;22296;50.824;5.644;2022-11-20T10:30:24;100096.97;;;13.96;63.94
36260;BME280;22296;50.824;5.644;2022-11-20T10:32:54;100100.22;;;13.98;63.97
36260;BME280;22296;50.824;5.644;2022-11-20T10:35:55;100104.31;;;14.00;63.98
36260;BME280;22296;50.824;5.644;2022-11-20T10:38:48;100099.72;;;14.04;63.92
36260;BME280;22296;50.824;5.644;2022-11-20T10:41:21;100094.97;;;14.05;63.87
36260;BME280;22296;50.824;5.644;2022-11-20T10:44:00;100089.75;;;14.03;63.82
36260;BME280;22296;50.824;5.644;2022-11-20T10:46:36;100094.16;;;14.04;63.73
36260;BME280;22296;50.824;5.644;2022-11-20T10:49:16;100078.66;;;14.03;63.74
36260;BME280;22296;50.824;5.644;2022-11-20T10:54:50;100066.59;;;14.08;63.66
36260;BME280;22296;50.824;5.644;2022-11-20T10:57:46;100072.28;;;14.11;63.57
36260;BME280;22296;50.824;5.644;2022-11-20T11:00:17;100069.84;;;14.10;63.40
36260;BME280;22296;50.824;5.644;2022-11-20T11:02:52;100061.19;;;14.11;63.46
36260;BME280;22296;50.824;5.644;2022-11-20T11:05:41;100052.88;;;14.11;63.40
36260;BME280;22296;50.824;5.644;2022-11-20T11:08:14;100053.34;;;14.13;63.40
36260;BME280;22296;50.824;5.644;2022-11-20T11:10:51;100052.53;;;14.13;63.63
36260;BME280;22296;50.824;5.644;2022-11-20T11:13:27;100037.19;;;14.15;63.37
36260;BME280;22296;50.824;5.644;2022-11-20T11:15:55;100033.28;;;14.16;63.28
36260;BME280;22296;50.824;5.644;2022-11-20T11:18:29;100024.50;;;14.14;63.39
36260;BME280;22296;50.824;5.644;2022-11-20T11:20:58;100019.06;;;14.18;63.26
36260;BME280;22296;50.824;5.644;2022-11-20T11:26:00;100010.44;;;14.19;63.09
36260;BME280;22296;50.824;5.644;2022-11-20T11:28:28;100010.91;;;14.21;63.17
36260;BME280;22296;50.824;5.644;2022-11-20T11:30:55;99998.19;;;14.20;63.18
36260;BME280;22296;50.824;5.644;2022-11-20T11:33:27;99998.00;;;14.25;63.53
36260;BME280;22296;50.824;5.644;2022-11-20T11:35:57;99992.88;;;14.36;63.60
36260;BME280;22296;50.824;5.644;2022-11-20T11:40:56;99988.72;;;14.51;63.41
36260;BME280;22296;50.824;5.644;2022-11-20T11:43:26;99992.44;;;14.55;63.24
36260;BME280;22296;50.824;5.644;2022-11-20T11:46:30;99991.88;;;14.61;63.09
36260;BME280;22296;50.824;5.644;2022-11-20T11:54:13;99970.34;;;14.79;62.62
36260;BME280;22296;50.824;5.644;2022-11-20T11:56:40;99965.75;;;14.83;62.61
36260;BME280;22296;50.824;5.644;2022-11-20T11:59:12;99965.31;;;14.93;62.47
36260;BME280;22296;50.824;5.644;2022-11-20T12:01:47;99965.59;;;15.00;62.09
36260;BME280;22296;50.824;5.644;2022-11-20T12:04:40;99966.66;;;15.08;62.06
36260;BME280;22296;50.824;5.644;2022-11-20T12:10:23;99945.72;;;15.10;61.83
36260;BME280;22296;50.824;5.644;2022-11-20T12:13:03;99938.34;;;15.14;61.89
36260;BME280;22296;50.824;5.644;2022-11-20T12:15:33;99931.97;;;15.14;61.95
36260;BME280;22296;50.824;5.644;2022-11-20T12:18:01;99929.78;;;15.19;61.76
36260;BME280;22296;50.824;5.644;2022-11-20T12:20:41;99928.97;;;15.19;61.83
36260;BME280;22296;50.824;5.644;2022-11-20T12:23:25;99932.69;;;15.23;62.02
36260;BME280;22296;50.824;5.644;2022-11-20T12:25:56;99920.72;;;15.10;61.93
36260;BME280;22296;50.824;5.644;2022-11-20T12:28:43;99921.16;;;15.00;61.98
36260;BME280;22296;50.824;5.644;2022-11-20T12:31:47;99921.03;;;14.97;62.14
36260;BME280;22296;50.824;5.644;2022-11-20T12:34:44;99908.19;;;14.92;62.11
36260;BME280;22296;50.824;5.644;2022-11-20T12:37:43;99899.78;;;15.01;61.99
36260;BME280;22296;50.824;5.644;2022-11-20T12:40:44;99894.72;;;15.15;62.08
36260;BME280;22296;50.824;5.644;2022-11-20T12:43:43;99882.34;;;15.12;62.03
36260;BME280;22296;50.824;5.644;2022-11-20T12:46:47;99880.22;;;14.97;62.12
36260;BME280;22296;50.824;5.644;2022-11-20T12:52:48;99878.34;;;14.89;62.37
36260;BME280;22296;50.824;5.644;2022-11-20T12:55:49;99873.47;;;14.86;62.40
36260;BME280;22296;50.824;5.644;2022-11-20T13:01:40;99870.44;;;14.79;62.54
36260;BME280;22296;50.824;5.644;2022-11-20T13:04:19;99862.34;;;14.74;62.71
36260;BME280;22296;50.824;5.644;2022-11-20T13:07:10;99857.00;;;14.69;62.71
36260;BME280;22296;50.824;5.644;2022-11-20T13:09:52;99852.72;;;14.71;62.71
36260;BME280;22296;50.824;5.644;2022-11-20T13:12:41;99847.03;;;14.68;62.75
36260;BME280;22296;50.824;5.644;2022-11-20T13:18:07;99835.13;;;14.67;62.86
36260;BME280;22296;50.824;5.644;2022-11-20T13:20:36;99826.47;;;14.69;62.77
36260;BME280;22296;50.824;5.644;2022-11-20T13:23:33;99829.84;;;14.74;62.34
36260;BME280;22296;50.824;5.644;2022-11-20T13:26:05;99824.63;;;14.73;62.50
36260;BME280;22296;50.824;5.644;2022-11-20T13:28:32;99823.13;;;14.75;62.45
36260;BME280;22296;50.824;5.644;2022-11-20T13:30:59;99825.56;;;14.77;62.24
36260;BME280;22296;50.824;5.644;2022-11-20T13:33:39;99818.97;;;14.81;62.18
36260;BME280;22296;50.824;5.644;2022-11-20T13:36:21;99826.03;;;14.79;62.15
36260;BME280;22296;50.824;5.644;2022-11-20T13:38:59;99818.16;;;14.81;62.00
36260;BME280;22296;50.824;5.644;2022-11-20T13:41:31;99819.09;;;14.85;62.02
36260;BME280;22296;50.824;5.644;2022-11-20T13:44:33;99810.66;;;14.81;62.00
36260;BME280;22296;50.824;5.644;2022-11-20T13:47:01;99800.72;;;14.80;62.20
36260;BME280;22296;50.824;5.644;2022-11-20T13:49:34;99796.44;;;14.83;62.02
36260;BME280;22296;50.824;5.644;2022-11-20T14:01:31;99789.03;;;14.87;61.96
36260;BME280;22296;50.824;5.644;2022-11-20T14:03:59;99778.75;;;14.88;62.02
36260;BME280;22296;50.824;5.644;2022-11-20T14:06:39;99766.81;;;14.87;62.05
36260;BME280;22296;50.824;5.644;2022-11-20T14:09:30;99746.25;;;14.88;61.92
36260;BME280;22296;50.824;5.644;2022-11-20T14:11:57;99755.03;;;14.90;61.90
36260;BME280;22296;50.824;5.644;2022-11-20T14:14:26;99748.31;;;14.91;61.94
36260;BME280;22296;50.824;5.644;2022-11-20T14:17:04;99741.16;;;14.90;61.96
36260;BME280;22296;50.824;5.644;2022-11-20T14:19:31;99738.59;;;14.85;61.91
36260;BME280;22296;50.824;5.644;2022-11-20T14:22:22;99722.06;;;14.89;61.92